sensor_id;sensor_type;location;lat;lon;timestamp;pressure;altitude;pressure_sealevel;temperature;humidity
19600;BME280;9947;57.722;12.012;2023-04-07T00:01:10;101997.47;;;-1.38;100.00
19600;BME280;9947;57.722;12.012;2023-04-07T00:03:45;102001.84;;;-1.34;100.00
19600;BME280;9947;57.722;12.012;2023-04-07T00:06:19;102004.53;;;-1.40;100.00
19600;BME280;9947;57.722;12.012;2023-04-07T00:08:57;102012.53;;;-1.42;100.00
19600;BME280;9947;57.722;12.012;2023-04-07T00:11:31;102005.47;;;-1.44;100.00
19600;BME280;9947;57.722;12.012;2023-04-07T00:14:01;102007.28;;;-1.49;100.00
19600;BME280;9947;57.722;12.012;2023-04-07T00:16:35;102006.41;;;-1.51;100.00
19600;BME280;9947;57.722;12.012;2023-04-07T00:19:11;102009.09;;;-1.59;100.00
19600;BME280;9947;57.722;12.012;2023-04-07T00:21:46;102008.22;;;-1.61;100.00
19600;BME280;9947;57.722;12.012;2023-04-07T00:24:18;102013.59;;;-1.70;100.00
19600;BME280;9947;57.722;12.012;2023-04-07T00:26:47;102007.38;;;-1.68;100.00
19600;BME280;9947;57.722;12.012;2023-04-07T00:29:17;102008.28;;;-1.69;100.00
19600;BME280;9947;57.722;12.012;2023-04-07T00:31:54;102011.84;;;-1.73;100.00
19600;BME280;9947;57.722;12.012;2023-04-07T00:34:30;102011.88;;;-1.77;100.00
19600;BME280;9947;57.722;12.012;2023-04-07T00:36:58;102007.44;;;-1.74;100.00
19600;BME280;9947;57.722;12.012;2023-04-07T00:39:34;102015.44;;;-1.80;100.00
19600;BME280;9947;57.722;12.012;2023-04-07T00:42:05;102018.94;;;-1.82;100.00
19600;BME280;9947;57.722;12.012;2023-04-07T00:44:42;102025.13;;;-1.83;100.00
19600;BME280;9947;57.722;12.012;2023-04-07T00:47:21;102024.28;;;-1.90;100.00
19600;BME280;9947;57.722;12.012;2023-04-07T00:49:54;102024.31;;;-1.92;100.00
19600;BME280;9947;57.722;12.012;2023-04-07T00:55:07;102029.59;;;-1.90;100.00
19600;BME280;9947;57.722;12.012;2023-04-07T00:57:41;102029.59;;;-1.90;100.00
19600;BME280;9947;57.722;12.012;2023-04-07T01:00:11;102027.81;;;-1.88;100.00
19600;BME280;9947;57.722;12.012;2023-04-07T01:02:52;102026.06;;;-1.92;100.00
19600;BME280;9947;57.722;12.012;2023-04-07T01:05:26;102024.34;;;-1.98;100.00
19600;BME280;9947;57.722;12.012;2023-04-07T01:08:03;102032.28;;;-1.99;100.00
19600;BME280;9947;57.722;12.012;2023-04-07T01:10:41;102024.38;;;-2.05;100.00
19600;BME280;9947;57.722;12.012;2023-04-07T01:13:21;102027.91;;;-2.03;100.00
19600;BME280;9947;57.722;12.012;2023-04-07T01:15:52;102019.09;;;-2.05;100.00
19600;BME280;9947;57.722;12.012;2023-04-07T01:18:33;102027.91;;;-2.06;100.00
19600;BME280;9947;57.722;12.012;2023-04-07T01:21:05;102025.25;;;-2.09;100.00
19600;BME280;9947;57.722;12.012;2023-04-07T01:23:51;102020.88;;;-2.15;100.00
19600;BME280;9947;57.722;12.012;2023-04-07T01:26:30;102031.50;;;-2.23;100.00
19600;BME280;9947;57.722;12.012;2023-04-07T01:29:36;102031.53;;;-2.29;100.00
19600;BME280;9947;57.722;12.012;2023-04-07T01:32:17;102035.06;;;-2.30;100.00
19600;BME280;9947;57.722;12.012;2023-04-07T01:34:48;102028.88;;;-2.35;100.00
19600;BME280;9947;57.722;12.012;2023-04-07T01:37:25;102028.03;;;-2.34;100.00
19600;BME280;9947;57.722;12.012;2023-04-07T01:40:04;102034.16;;;-2.23;100.00
19600;BME280;9947;57.722;12.012;2023-04-07T01:42:50;102034.13;;;-2.20;100.00
19600;BME280;9947;57.722;12.012;2023-04-07T01:45:35;102036.81;;;-2.26;100.00
19600;BME280;9947;57.722;12.012;2023-04-07T01:48:07;102038.59;;;-2.26;100.00
19600;BME280;9947;57.722;12.012;2023-04-07T01:50:35;102037.69;;;-2.25;100.00
19600;BME280;9947;57.722;12.012;2023-04-07T01:53:18;102035.94;;;-2.37;100.00
19600;BME280;9947;57.722;12.012;2023-04-07T01:55:55;102030.66;;;-2.38;100.00
19600;BME280;9947;57.722;12.012;2023-04-07T01:58:22;102032.41;;;-2.36;100.00
19600;BME280;9947;57.722;12.012;2023-04-07T02:01:07;102038.63;;;-2.34;100.00
19600;BME280;9947;57.722;12.012;2023-04-07T02:03:55;102043.91;;;-2.31;100.00
19600;BME280;9947;57.722;12.012;2023-04-07T02:06:31;102039.47;;;-2.36;100.00
19600;BME280;9947;57.722;12.012;2023-04-07T02:09:14;102046.56;;;-2.32;100.00
19600;BME280;9947;57.722;12.012;2023-04-07T02:11:44;102046.53;;;-2.35;100.00
19600;BME280;9947;57.722;12.012;2023-04-07T02:14:29;102050.09;;;-2.44;100.00
19600;BME280;9947;57.722;12.012;2023-04-07T02:17:00;102042.19;;;-2.50;100.00
19600;BME280;9947;57.722;12.012;2023-04-07T02:19:30;102043.06;;;-2.54;100.00
19600;BME280;9947;57.722;12.012;2023-04-07T02:22:02;102044.84;;;-2.55;100.00
19600;BME280;9947;57.722;12.012;2023-04-07T02:24:31;102043.97;;;-2.60;100.00
19600;BME280;9947;57.722;12.012;2023-04-07T02:26:58;102058.97;;;-2.57;100.00
19600;BME280;9947;57.722;12.012;2023-04-07T02:29:49;102056.31;;;-2.51;100.00
19600;BME280;9947;57.722;12.012;2023-04-07T02:32:20;102051.88;;;-2.47;100.00
19600;BME280;9947;57.722;12.012;2023-04-07T02:34:51;102049.22;;;-2.47;100.00
19600;BME280;9947;57.722;12.012;2023-04-07T02:37:32;102066.00;;;-2.49;100.00
19600;BME280;9947;57.722;12.012;2023-04-07T02:39:59;102064.25;;;-2.50;100.00
19600;BME280;9947;57.722;12.012;2023-04-07T02:42:27;102051.00;;;-2.48;100.00
19600;BME280;9947;57.722;12.012;2023-04-07T02:44:58;102059.81;;;-2.46;100.00
19600;BME280;9947;57.722;12.012;2023-04-07T02:47:26;102055.41;;;-2.49;100.00
19600;BME280;9947;57.722;12.012;2023-04-07T02:50:01;102060.72;;;-2.50;100.00
19600;BME280;9947;57.722;12.012;2023-04-07T02:52:32;102064.22;;;-2.42;100.00
19600;BME280;9947;57.722;12.012;2023-04-07T02:55:07;102065.09;;;-2.40;100.00
19600;BME280;9947;57.722;12.012;2023-04-07T02:57:46;102070.41;;;-2.49;100.00
19600;BME280;9947;57.722;12.012;2023-04-07T03:00:15;102073.97;;;-2.58;100.00
19600;BME280;9947;57.722;12.012;2023-04-07T03:03:06;102066.00;;;-2.61;100.00
19600;BME280;9947;57.722;12.012;2023-04-07T03:05:39;102079.25;;;-2.64;100.00
19600;BME280;9947;57.722;12.012;2023-04-07T03:08:07;102072.19;;;-2.62;100.00
19600;BME280;9947;57.722;12.012;2023-04-07T03:11:01;102078.38;;;-2.66;100.00
19600;BME280;9947;57.722;12.012;2023-04-07T03:13:48;102073.97;;;-2.73;100.00
19600;BME280;9947;57.722;12.012;2023-04-07T03:16:20;102077.50;;;-2.69;100.00
19600;BME280;9947;57.722;12.012;2023-04-07T03:19:06;102085.44;;;-2.69;100.00
19600;BME280;9947;57.722;12.012;2023-04-07T03:22:00;102079.25;;;-2.67;100.00
19600;BME280;9947;57.722;12.012;2023-04-07T03:24:42;102084.53;;;-2.65;100.00
19600;BME280;9947;57.722;12.012;2023-04-07T03:27:11;102081.88;;;-2.62;100.00
19600;BME280;9947;57.722;12.012;2023-04-07T03:29:44;102084.53;;;-2.62;100.00
19600;BME280;9947;57.722;12.012;2023-04-07T03:32:25;102089.84;;;-2.62;100.00
19600;BME280;9947;57.722;12.012;2023-04-07T03:34:58;102090.72;;;-2.65;100.00
19600;BME280;9947;57.722;12.012;2023-04-07T03:37:46;102088.97;;;-2.69;100.00
19600;BME280;9947;57.722;12.012;2023-04-07T03:40:18;102099.56;;;-2.69;100.00
19600;BME280;9947;57.722;12.012;2023-04-07T03:42:55;102099.56;;;-2.75;100.00
19600;BME280;9947;57.722;12.012;2023-04-07T03:45:23;102098.69;;;-2.85;100.00
19600;BME280;9947;57.722;12.012;2023-04-07T03:47:53;102103.09;;;-2.85;100.00
19600;BME280;9947;57.722;12.012;2023-04-07T03:50:26;102103.06;;;-2.96;100.00
19600;BME280;9947;57.722;12.012;2023-04-07T03:52:55;102111.03;;;-2.99;100.00
19600;BME280;9947;57.722;12.012;2023-04-07T03:55:37;102110.13;;;-3.04;100.00
19600;BME280;9947;57.722;12.012;2023-04-07T03:58:12;102106.63;;;-3.09;100.00
19600;BME280;9947;57.722;12.012;2023-04-07T04:00:41;102103.09;;;-3.06;100.00
19600;BME280;9947;57.722;12.012;2023-04-07T04:03:18;102107.50;;;-3.10;100.00
19600;BME280;9947;57.722;12.012;2023-04-07T04:05:51;102104.84;;;-3.10;100.00
19600;BME280;9947;57.722;12.012;2023-04-07T04:08:26;102111.03;;;-3.08;100.00
19600;BME280;9947;57.722;12.012;2023-04-07T04:10:58;102109.25;;;-3.06;100.00
19600;BME280;9947;57.722;12.012;2023-04-07T04:13:34;102101.31;;;-3.07;100.00
19600;BME280;9947;57.722;12.012;2023-04-07T04:16:17;102112.78;;;-3.10;100.00
19600;BME280;9947;57.722;12.012;2023-04-07T04:19:06;102111.91;;;-3.12;100.00
19600;BME280;9947;57.722;12.012;2023-04-07T04:22:08;102114.50;;;-3.17;100.00
19600;BME280;9947;57.722;12.012;2023-04-07T04:24:46;102119.81;;;-3.15;100.00
19600;BME280;9947;57.722;12.012;2023-04-07T04:27:20;102120.72;;;-3.08;100.00
19600;BME280;9947;57.722;12.012;2023-04-07T04:30:06;102123.38;;;-3.07;100.00
19600;BME280;9947;57.722;12.012;2023-04-07T04:32:41;102121.59;;;-3.02;100.00
19600;BME280;9947;57.722;12.012;2023-04-07T04:35:13;102118.06;;;-2.98;100.00
19600;BME280;9947;57.722;12.012;2023-04-07T04:38:01;102116.31;;;-2.94;100.00
19600;BME280;9947;57.722;12.012;2023-04-07T04:51:29;102137.44;;;-2.17;100.00
19600;BME280;9947;57.722;12.012;2023-04-07T04:54:05;102130.34;;;-2.08;100.00
19600;BME280;9947;57.722;12.012;2023-04-07T04:56:32;102137.38;;;-1.92;100.00
19600;BME280;9947;57.722;12.012;2023-04-07T04:59:10;102142.72;;;-2.12;100.00
19600;BME280;9947;57.722;12.012;2023-04-07T05:01:44;102152.44;;;-2.05;100.00
19600;BME280;9947;57.722;12.012;2023-04-07T05:04:19;102151.47;;;-1.72;100.00
19600;BME280;9947;57.722;12.012;2023-04-07T05:06:54;102158.38;;;-1.36;100.00
19600;BME280;9947;57.722;12.012;2023-04-07T05:09:37;102159.13;;;-1.11;100.00
19600;BME280;9947;57.722;12.012;2023-04-07T05:12:18;102164.13;;;-0.67;100.00
19600;BME280;9947;57.722;12.012;2023-04-07T05:15:13;102152.03;;;0.00;100.00
19600;BME280;9947;57.722;12.012;2023-04-07T05:17:41;102150.34;;;-0.12;100.00
19600;BME280;9947;57.722;12.012;2023-04-07T05:20:22;102148.06;;;0.36;100.00
19600;BME280;9947;57.722;12.012;2023-04-07T05:22:54;102148.31;;;0.84;100.00
19600;BME280;9947;57.722;12.012;2023-04-07T05:25:27;102154.47;;;0.87;100.00
19600;BME280;9947;57.722;12.012;2023-04-07T05:27:57;102151.25;;;0.64;100.00
19600;BME280;9947;57.722;12.012;2023-04-07T05:30:26;102161.47;;;0.27;100.00
19600;BME280;9947;57.722;12.012;2023-04-07T05:32:56;102154.25;;;1.03;100.00
19600;BME280;9947;57.722;12.012;2023-04-07T05:35:24;102162.09;;;1.13;100.00
19600;BME280;9947;57.722;12.012;2023-04-07T05:38:13;102163.91;;;1.11;100.00
19600;BME280;9947;57.722;12.012;2023-04-07T05:40:41;102166.06;;;0.85;100.00
19600;BME280;9947;57.722;12.012;2023-04-07T05:43:17;102166.22;;;0.71;100.00
19600;BME280;9947;57.722;12.012;2023-04-07T05:45:53;102170.44;;;0.89;100.00
19600;BME280;9947;57.722;12.012;2023-04-07T05:48:41;102177.41;;;0.25;100.00
19600;BME280;9947;57.722;12.012;2023-04-07T05:51:14;102179.16;;;0.29;100.00
19600;BME280;9947;57.722;12.012;2023-04-07T05:53:47;102175.91;;;0.78;100.00
19600;BME280;9947;57.722;12.012;2023-04-07T05:56:14;102178.19;;;0.37;100.00
19600;BME280;9947;57.722;12.012;2023-04-07T05:58:42;102178.94;;;0.48;100.00
19600;BME280;9947;57.722;12.012;2023-04-07T06:01:10;102184.22;;;0.49;100.00
19600;BME280;9947;57.722;12.012;2023-04-07T06:03:46;102182.28;;;0.65;100.00
19600;BME280;9947;57.722;12.012;2023-04-07T06:06:15;102184.84;;;0.71;100.00
19600;BME280;9947;57.722;12.012;2023-04-07T06:08:48;102188.72;;;1.13;100.00
19600;BME280;9947;57.722;12.012;2023-04-07T06:11:15;102189.41;;;1.26;100.00
19600;BME280;9947;57.722;12.012;2023-04-07T06:13:43;102188.53;;;1.26;100.00
19600;BME280;9947;57.722;12.012;2023-04-07T06:16:15;102191.19;;;1.26;100.00
19600;BME280;9947;57.722;12.012;2023-04-07T06:18:46;102191.75;;;0.87;100.00
19600;BME280;9947;57.722;12.012;2023-04-07T06:21:14;102197.59;;;1.14;100.00
19600;BME280;9947;57.722;12.012;2023-04-07T06:23:42;102199.41;;;1.12;100.00
19600;BME280;9947;57.722;12.012;2023-04-07T06:26:12;102201.41;;;0.95;100.00
19600;BME280;9947;57.722;12.012;2023-04-07T06:28:46;102199.41;;;1.12;100.00
19600;BME280;9947;57.722;12.012;2023-04-07T06:31:14;102205.09;;;1.46;100.00
19600;BME280;9947;57.722;12.012;2023-04-07T06:33:47;102196.28;;;1.41;100.00
19600;BME280;9947;57.722;12.012;2023-04-07T06:36:35;102201.03;;;1.20;100.00
19600;BME280;9947;57.722;12.012;2023-04-07T06:39:12;102200.50;;;0.96;100.00
19600;BME280;9947;57.722;12.012;2023-04-07T06:41:45;102202.41;;;0.86;100.00
19600;BME280;9947;57.722;12.012;2023-04-07T06:44:13;102199.63;;;0.95;100.00
19600;BME280;9947;57.722;12.012;2023-04-07T06:46:42;102205.78;;;0.99;100.00
19600;BME280;9947;57.722;12.012;2023-04-07T06:49:11;102204.91;;;0.98;100.00
19600;BME280;9947;57.722;12.012;2023-04-07T06:51:38;102206.72;;;0.96;100.00
19600;BME280;9947;57.722;12.012;2023-04-07T06:54:07;102208.25;;;1.14;100.00
19600;BME280;9947;57.722;12.012;2023-04-07T06:56:38;102206.38;;;1.19;100.00
19600;BME280;9947;57.722;12.012;2023-04-07T06:59:10;102205.28;;;1.35;100.00
19600;BME280;9947;57.722;12.012;2023-04-07T07:01:42;102204.22;;;1.45;100.00
19600;BME280;9947;57.722;12.012;2023-04-07T07:04:09;102206.97;;;1.39;100.00
19600;BME280;9947;57.722;12.012;2023-04-07T07:06:40;102211.31;;;1.46;100.00
19600;BME280;9947;57.722;12.012;2023-04-07T07:09:11;102202.22;;;1.60;100.00
19600;BME280;9947;57.722;12.012;2023-04-07T07:11:46;102210.28;;;1.57;100.00
19600;BME280;9947;57.722;12.012;2023-04-07T07:14:21;102209.31;;;1.61;100.00
19600;BME280;9947;57.722;12.012;2023-04-07T07:17:00;102215.91;;;1.91;100.00
19600;BME280;9947;57.722;12.012;2023-04-07T07:19:37;102207.66;;;2.04;100.00
19600;BME280;9947;57.722;12.012;2023-04-07T07:22:04;102209.38;;;2.07;100.00
19600;BME280;9947;57.722;12.012;2023-04-07T07:24:41;102216.25;;;2.20;100.00
19600;BME280;9947;57.722;12.012;2023-04-07T07:27:12;102209.56;;;2.45;100.00
19600;BME280;9947;57.722;12.012;2023-04-07T07:29:44;102209.34;;;2.55;100.00
19600;BME280;9947;57.722;12.012;2023-04-07T07:32:24;102211.75;;;2.68;100.00
19600;BME280;9947;57.722;12.012;2023-04-07T07:34:52;102209.81;;;2.76;100.00
19600;BME280;9947;57.722;12.012;2023-04-07T07:37:21;102214.63;;;3.01;100.00
19600;BME280;9947;57.722;12.012;2023-04-07T07:43:10;102211.22;;;3.33;100.00
19600;BME280;9947;57.722;12.012;2023-04-07T07:49:18;102210.28;;;3.35;100.00
19600;BME280;9947;57.722;12.012;2023-04-07T07:52:06;102219.09;;;3.76;100.00
19600;BME280;9947;57.722;12.012;2023-04-07T07:54:38;102223.41;;;3.82;100.00
19600;BME280;9947;57.722;12.012;2023-04-07T07:57:19;102222.00;;;4.02;100.00
19600;BME280;9947;57.722;12.012;2023-04-07T07:59:59;102220.75;;;4.16;100.00
19600;BME280;9947;57.722;12.012;2023-04-07T08:02:40;102229.44;;;4.25;100.00
19600;BME280;9947;57.722;12.012;2023-04-07T08:05:27;102234.75;;;4.27;100.00
19600;BME280;9947;57.722;12.012;2023-04-07T08:07:55;102238.78;;;4.42;100.00
19600;BME280;9947;57.722;12.012;2023-04-07T08:10:30;102234.00;;;4.22;100.00
19600;BME280;9947;57.722;12.012;2023-04-07T08:12:57;102241.06;;;4.24;100.00
19600;BME280;9947;57.722;12.012;2023-04-07T08:15:33;102239.75;;;4.39;100.00
19600;BME280;9947;57.722;12.012;2023-04-07T08:18:03;102252.16;;;4.43;100.00
19600;BME280;9947;57.722;12.012;2023-04-07T08:20:36;102243.19;;;4.44;98.42
19600;BME280;9947;57.722;12.012;2023-04-07T08:23:17;102243.13;;;4.47;100.00
19600;BME280;9947;57.722;12.012;2023-04-07T08:25:49;102243.03;;;4.50;100.00
19600;BME280;9947;57.722;12.012;2023-04-07T08:28:21;102250.50;;;4.38;97.46
19600;BME280;9947;57.722;12.012;2023-04-07T08:37:16;102247.66;;;4.76;91.11
19600;BME280;9947;57.722;12.012;2023-04-07T08:40:01;102239.81;;;4.70;90.67
19600;BME280;9947;57.722;12.012;2023-04-07T08:42:34;102242.81;;;4.89;87.10
19600;BME280;9947;57.722;12.012;2023-04-07T08:45:21;102240.19;;;4.87;85.02
19600;BME280;9947;57.722;12.012;2023-04-07T08:47:52;102243.59;;;4.92;85.28
19600;BME280;9947;57.722;12.012;2023-04-07T08:50:44;102236.03;;;5.07;88.00
19600;BME280;9947;57.722;12.012;2023-04-07T08:53:29;102236.09;;;5.05;85.55
19600;BME280;9947;57.722;12.012;2023-04-07T08:56:13;102249.34;;;5.10;83.68
19600;BME280;9947;57.722;12.012;2023-04-07T08:58:43;102243.69;;;5.20;81.10
19600;BME280;9947;57.722;12.012;2023-04-07T09:01:16;102243.34;;;5.31;81.45
19600;BME280;9947;57.722;12.012;2023-04-07T09:03:51;102231.16;;;5.21;81.52
19600;BME280;9947;57.722;12.012;2023-04-07T09:06:29;102237.09;;;5.31;80.02
19600;BME280;9947;57.722;12.012;2023-04-07T09:09:03;102242.47;;;5.31;81.61
19600;BME280;9947;57.722;12.012;2023-04-07T09:11:37;102245.78;;;5.39;80.67
19600;BME280;9947;57.722;12.012;2023-04-07T09:14:09;102241.75;;;5.53;81.73
19600;BME280;9947;57.722;12.012;2023-04-07T09:16:45;102243.38;;;5.85;79.44
19600;BME280;9947;57.722;12.012;2023-04-07T09:19:15;102232.03;;;5.77;80.84
19600;BME280;9947;57.722;12.012;2023-04-07T09:21:50;102233.69;;;5.81;79.43
19600;BME280;9947;57.722;12.012;2023-04-07T09:24:46;102236.28;;;5.56;78.80
19600;BME280;9947;57.722;12.012;2023-04-07T09:27:28;102233.22;;;5.67;79.58
19600;BME280;9947;57.722;12.012;2023-04-07T09:30:10;102236.56;;;5.75;79.86
19600;BME280;9947;57.722;12.012;2023-04-07T09:33:13;102219.44;;;5.79;76.55
19600;BME280;9947;57.722;12.012;2023-04-07T09:36:00;102221.72;;;5.92;78.05
19600;BME280;9947;57.722;12.012;2023-04-07T09:38:35;102238.41;;;6.01;79.60
19600;BME280;9947;57.722;12.012;2023-04-07T09:41:14;102226.25;;;6.16;77.33
19600;BME280;9947;57.722;12.012;2023-04-07T09:43:46;102230.19;;;6.32;76.92
19600;BME280;9947;57.722;12.012;2023-04-07T09:46:16;102222.22;;;6.54;76.23
19600;BME280;9947;57.722;12.012;2023-04-07T09:48:45;102225.91;;;6.52;74.60
19600;BME280;9947;57.722;12.012;2023-04-07T09:51:14;102228.84;;;6.19;74.09
19600;BME280;9947;57.722;12.012;2023-04-07T09:53:56;102218.56;;;6.32;76.14
19600;BME280;9947;57.722;12.012;2023-04-07T09:56:35;102217.47;;;6.37;75.36
19600;BME280;9947;57.722;12.012;2023-04-07T09:59:11;102219.03;;;6.43;74.98
19600;BME280;9947;57.722;12.012;2023-04-07T10:01:54;102235.66;;;6.29;73.66
19600;BME280;9947;57.722;12.012;2023-04-07T10:04:26;102229.47;;;6.27;75.06
19600;BME280;9947;57.722;12.012;2023-04-07T10:06:55;102230.81;;;6.14;75.30
19600;BME280;9947;57.722;12.012;2023-04-07T10:09:35;102209.50;;;6.34;75.78
19600;BME280;9947;57.722;12.012;2023-04-07T10:12:34;102216.69;;;6.34;75.63
19600;BME280;9947;57.722;12.012;2023-04-07T10:15:14;102202.56;;;6.54;76.32
19600;BME280;9947;57.722;12.012;2023-04-07T10:18:07;102194.00;;;6.42;74.72
19600;BME280;9947;57.722;12.012;2023-04-07T10:20:44;102221.47;;;6.74;77.36
19600;BME280;9947;57.722;12.012;2023-04-07T10:23:27;102204.34;;;6.78;74.48
19600;BME280;9947;57.722;12.012;2023-04-07T10:26:33;102203.78;;;6.92;73.30
19600;BME280;9947;57.722;12.012;2023-04-07T10:29:18;102189.84;;;6.82;71.22
19600;BME280;9947;57.722;12.012;2023-04-07T10:31:58;102205.91;;;6.84;71.64
19600;BME280;9947;57.722;12.012;2023-04-07T10:34:56;102202.72;;;6.72;70.57
19600;BME280;9947;57.722;12.012;2023-04-07T10:37:27;102197.41;;;6.94;70.81
19600;BME280;9947;57.722;12.012;2023-04-07T10:40:28;102203.53;;;7.21;70.92
19600;BME280;9947;57.722;12.012;2023-04-07T10:42:58;102218.47;;;6.83;67.66
19600;BME280;9947;57.722;12.012;2023-04-07T10:46:04;102203.84;;;6.90;67.93
19600;BME280;9947;57.722;12.012;2023-04-07T10:48:40;102199.59;;;7.08;67.68
19600;BME280;9947;57.722;12.012;2023-04-07T10:51:16;102207.00;;;7.01;66.51
19600;BME280;9947;57.722;12.012;2023-04-07T10:54:15;102211.22;;;7.08;66.41
19600;BME280;9947;57.722;12.012;2023-04-07T11:00:14;102213.75;;;7.35;65.09
19600;BME280;9947;57.722;12.012;2023-04-07T11:02:45;102208.41;;;7.11;63.04
19600;BME280;9947;57.722;12.012;2023-04-07T11:05:21;102202.91;;;7.15;62.76
19600;BME280;9947;57.722;12.012;2023-04-07T11:08:01;102209.44;;;7.31;60.02
19600;BME280;9947;57.722;12.012;2023-04-07T11:10:34;102187.63;;;7.38;61.38
19600;BME280;9947;57.722;12.012;2023-04-07T11:13:05;102194.47;;;7.24;60.63
19600;BME280;9947;57.722;12.012;2023-04-07T11:15:38;102188.09;;;7.26;59.17
19600;BME280;9947;57.722;12.012;2023-04-07T11:18:29;102189.44;;;7.38;60.52
19600;BME280;9947;57.722;12.012;2023-04-07T11:20:59;102184.47;;;7.49;61.86
19600;BME280;9947;57.722;12.012;2023-04-07T11:23:40;102174.28;;;7.57;63.52
19600;BME280;9947;57.722;12.012;2023-04-07T11:26:18;102180.91;;;7.70;61.63
19600;BME280;9947;57.722;12.012;2023-04-07T11:28:46;102198.81;;;7.50;60.27
19600;BME280;9947;57.722;12.012;2023-04-07T11:31:22;102194.56;;;7.66;60.75
19600;BME280;9947;57.722;12.012;2023-04-07T11:34:02;102199.75;;;7.70;59.93
19600;BME280;9947;57.722;12.012;2023-04-07T11:36:32;102197.19;;;7.67;59.02
19600;BME280;9947;57.722;12.012;2023-04-07T11:39:00;102183.91;;;7.85;59.08
19600;BME280;9947;57.722;12.012;2023-04-07T11:41:45;102191.72;;;7.91;57.28
19600;BME280;9947;57.722;12.012;2023-04-07T11:44:23;102191.28;;;7.80;55.92
19600;BME280;9947;57.722;12.012;2023-04-07T11:46:58;102186.34;;;7.91;57.18
19600;BME280;9947;57.722;12.012;2023-04-07T11:49:33;102198.03;;;7.90;56.92
19600;BME280;9947;57.722;12.012;2023-04-07T11:52:09;102189.59;;;7.77;56.72
19600;BME280;9947;57.722;12.012;2023-04-07T11:54:44;102186.59;;;8.05;58.19
19600;BME280;9947;57.722;12.012;2023-04-07T11:57:24;102194.44;;;8.11;56.62
19600;BME280;9947;57.722;12.012;2023-04-07T12:00:06;102190.16;;;8.05;57.28
19600;BME280;9947;57.722;12.012;2023-04-07T12:02:36;102198.41;;;8.23;56.22
19600;BME280;9947;57.722;12.012;2023-04-07T12:05:11;102194.56;;;8.08;55.09
19600;BME280;9947;57.722;12.012;2023-04-07T12:07:53;102193.81;;;8.04;56.14
19600;BME280;9947;57.722;12.012;2023-04-07T12:10:23;102186.00;;;7.98;56.37
19600;BME280;9947;57.722;12.012;2023-04-07T12:13:12;102185.66;;;8.06;55.88
19600;BME280;9947;57.722;12.012;2023-04-07T12:15:40;102198.47;;;8.21;55.11
19600;BME280;9947;57.722;12.012;2023-04-07T12:18:24;102185.16;;;8.18;55.18
19600;BME280;9947;57.722;12.012;2023-04-07T12:21:08;102191.50;;;8.38;54.37
19600;BME280;9947;57.722;12.012;2023-04-07T12:23:37;102198.06;;;8.30;54.23
19600;BME280;9947;57.722;12.012;2023-04-07T12:26:17;102178.13;;;8.14;54.58
19600;BME280;9947;57.722;12.012;2023-04-07T12:28:50;102173.22;;;8.24;54.16
19600;BME280;9947;57.722;12.012;2023-04-07T12:31:27;102181.47;;;8.41;52.76
19600;BME280;9947;57.722;12.012;2023-04-07T12:33:58;102175.28;;;8.58;52.45
19600;BME280;9947;57.722;12.012;2023-04-07T12:36:48;102173.28;;;8.82;53.04
19600;BME280;9947;57.722;12.012;2023-04-07T12:39:18;102189.56;;;8.99;52.00
19600;BME280;9947;57.722;12.012;2023-04-07T12:41:47;102170.34;;;8.88;51.17
19600;BME280;9947;57.722;12.012;2023-04-07T12:44:20;102169.94;;;8.77;51.62
19600;BME280;9947;57.722;12.012;2023-04-07T12:47:05;102166.53;;;8.92;51.42
19600;BME280;9947;57.722;12.012;2023-04-07T12:49:44;102169.91;;;8.97;51.92
19600;BME280;9947;57.722;12.012;2023-04-07T12:52:16;102168.56;;;9.06;51.36
19600;BME280;9947;57.722;12.012;2023-04-07T12:54:44;102168.94;;;8.98;51.58
19600;BME280;9947;57.722;12.012;2023-04-07T12:57:20;102167.69;;;9.05;51.82
19600;BME280;9947;57.722;12.012;2023-04-07T12:59:55;102165.94;;;9.23;51.45
19600;BME280;9947;57.722;12.012;2023-04-07T13:02:30;102171.63;;;9.36;51.68
19600;BME280;9947;57.722;12.012;2023-04-07T13:05:02;102168.88;;;9.18;50.19
19600;BME280;9947;57.722;12.012;2023-04-07T13:07:46;102158.97;;;9.19;50.67
19600;BME280;9947;57.722;12.012;2023-04-07T13:10:21;102165.22;;;9.19;50.29
19600;BME280;9947;57.722;12.012;2023-04-07T13:12:53;102163.94;;;8.90;51.21
19600;BME280;9947;57.722;12.012;2023-04-07T13:15:24;102166.97;;;9.02;50.93
19600;BME280;9947;57.722;12.012;2023-04-07T13:17:53;102167.56;;;9.08;51.13
19600;BME280;9947;57.722;12.012;2023-04-07T13:20:22;102165.66;;;9.10;51.61
19600;BME280;9947;57.722;12.012;2023-04-07T13:22:54;102176.88;;;9.39;50.93
19600;BME280;9947;57.722;12.012;2023-04-07T13:25:22;102167.59;;;9.44;51.03
19600;BME280;9947;57.722;12.012;2023-04-07T13:27:50;102168.56;;;9.43;50.51
19600;BME280;9947;57.722;12.012;2023-04-07T13:30:26;102170.28;;;9.63;50.44
19600;BME280;9947;57.722;12.012;2023-04-07T13:32:56;102172.38;;;9.39;50.69
19600;BME280;9947;57.722;12.012;2023-04-07T13:35:30;102164.75;;;9.47;50.56
19600;BME280;9947;57.722;12.012;2023-04-07T13:38:18;102173.75;;;9.29;50.82
19600;BME280;9947;57.722;12.012;2023-04-07T13:40:46;102182.41;;;9.36;51.59
19600;BME280;9947;57.722;12.012;2023-04-07T13:43:14;102172.44;;;9.19;52.39
19600;BME280;9947;57.722;12.012;2023-04-07T13:45:44;102175.53;;;9.11;52.92
19600;BME280;9947;57.722;12.012;2023-04-07T13:48:13;102168.13;;;9.34;52.48
19600;BME280;9947;57.722;12.012;2023-04-07T13:50:45;102177.31;;;9.30;52.15
19600;BME280;9947;57.722;12.012;2023-04-07T13:53:19;102181.84;;;9.29;51.30
19600;BME280;9947;57.722;12.012;2023-04-07T13:56:00;102184.88;;;8.84;51.09
19600;BME280;9947;57.722;12.012;2023-04-07T13:58:30;102184.97;;;8.82;51.18
19600;BME280;9947;57.722;12.012;2023-04-07T14:01:12;102183.50;;;8.75;50.44
19600;BME280;9947;57.722;12.012;2023-04-07T14:06:37;102177.97;;;8.78;52.07
19600;BME280;9947;57.722;12.012;2023-04-07T14:09:17;102188.13;;;8.92;51.90